createdAt,value
2023-10-16T00:00:37.195Z,101653.50
2023-10-16T00:02:39.129Z,101646.38
2023-10-16T00:04:41.232Z,101650.28
2023-10-16T00:06:43.233Z,101659.44
2023-10-16T00:08:45.632Z,101653.16
2023-10-16T00:10:58.109Z,101654.19
2023-10-16T00:13:00.391Z,101657.91
2023-10-16T00:15:04.381Z,101653.69
2023-10-16T00:17:06.465Z,101653.84
2023-10-16T00:19:08.269Z,101657.56
2023-10-16T00:21:10.499Z,101655.06
2023-10-16T00:23:13.090Z,101656.06
2023-10-16T00:25:15.350Z,101658.94
2023-10-16T00:27:17.472Z,101661.81
2023-10-16T00:29:19.643Z,101668.25
2023-10-16T00:31:22.773Z,101667.59
2023-10-16T00:33:24.605Z,101674.88
2023-10-16T00:35:26.509Z,101674.16
2023-10-16T00:37:28.309Z,101671.47
2023-10-16T00:39:30.680Z,101674.50
2023-10-16T00:41:32.733Z,101675.22
2023-10-16T00:43:35.315Z,101671.81
2023-10-16T00:45:43.998Z,101679.09
2023-10-16T00:47:47.186Z,101682.66
2023-10-16T00:49:49.037Z,101673.84
2023-10-16T00:51:51.351Z,101671.16
2023-10-16T00:53:53.661Z,101671.28
2023-10-16T00:55:56.069Z,101673.16
2023-10-16T00:58:00.202Z,101674.00
2023-10-16T01:00:02.147Z,101660.63
2023-10-16T01:02:04.283Z,101671.16
2023-10-16T01:04:07.671Z,101675.72
2023-10-16T01:06:10.578Z,101662.31
2023-10-16T01:08:13.024Z,101672.16
2023-10-16T01:10:15.294Z,101680.94
2023-10-16T01:12:17.387Z,101677.22
2023-10-16T01:14:19.936Z,101666.38
2023-10-16T01:16:22.320Z,101669.94
2023-10-16T01:18:24.274Z,101667.09
2023-10-16T01:20:27.565Z,101660.63
2023-10-16T01:22:29.280Z,101669.25
2023-10-16T01:24:32.829Z,101672.81
2023-10-16T01:26:34.780Z,101664.69
2023-10-16T01:28:36.815Z,101659.28
2023-10-16T01:30:38.817Z,101671.47
2023-10-16T01:32:40.716Z,101662.47
2023-10-16T01:34:42.946Z,101670.28
2023-10-16T01:36:45.113Z,101670.28
2023-10-16T01:38:47.230Z,101667.25
2023-10-16T01:40:51.133Z,101667.25
2023-10-16T01:42:53.013Z,101677.91
2023-10-16T01:44:55.975Z,101691.28
2023-10-16T01:46:57.958Z,101689.59
2023-10-16T01:48:59.860Z,101688.59
2023-10-16T01:51:01.549Z,101685.03
2023-10-16T01:53:03.371Z,101686.72
2023-10-16T01:55:05.534Z,101693.81
2023-10-16T01:57:09.458Z,101692.97
2023-10-16T01:59:11.364Z,101688.25
2023-10-16T02:01:15.133Z,101685.53
2023-10-16T02:03:16.978Z,101683.81
2023-10-16T02:05:18.707Z,101678.25
2023-10-16T02:07:20.449Z,101677.56
2023-10-16T02:09:22.158Z,101669.41
2023-10-16T02:11:24.195Z,101674.00
2023-10-16T02:13:27.467Z,101666.91
2023-10-16T02:15:29.516Z,101675.88
2023-10-16T02:17:31.310Z,101673.47
2023-10-16T02:19:33.096Z,101667.41
2023-10-16T02:21:34.919Z,101670.28
2023-10-16T02:23:36.946Z,101677.59
2023-10-16T02:25:38.597Z,101685.16
2023-10-16T02:27:40.416Z,101689.78
2023-10-16T02:29:43.645Z,101677.56
2023-10-16T02:31:45.656Z,101683.16
2023-10-16T02:33:49.171Z,101673.31
2023-10-16T02:35:50.953Z,101684.34
2023-10-16T02:37:52.700Z,101683.00
2023-10-16T02:39:54.560Z,101677.56
2023-10-16T02:41:56.257Z,101680.44
2023-10-16T02:43:58.395Z,101678.06
2023-10-16T02:46:01.429Z,101683.66
2023-10-16T02:48:03.483Z,101683.81
2023-10-16T02:50:06.420Z,101694.66
2023-10-16T02:52:08.391Z,101695.66
2023-10-16T02:54:10.116Z,101694.00
2023-10-16T02:56:11.730Z,101698.56
2023-10-16T02:58:13.403Z,101697.88
2023-10-16T03:00:16.442Z,101689.94
2023-10-16T03:02:19.900Z,101698.06
2023-10-16T03:04:21.714Z,101699.22
2023-10-16T03:06:23.455Z,101693.97
2023-10-16T03:08:25.681Z,101698.34
2023-10-16T03:10:27.968Z,101683.50
2023-10-16T03:12:30.016Z,101694.13
2023-10-16T03:14:32.452Z,101694.31
2023-10-16T03:16:34.538Z,101695.31
2023-10-16T03:18:37.864Z,101704.47
2023-10-16T03:20:39.670Z,101702.75
2023-10-16T03:22:41.445Z,101705.47
2023-10-16T03:24:43.184Z,101695.81
2023-10-16T03:26:44.946Z,101703.94
2023-10-16T03:28:46.684Z,101695.81
2023-10-16T03:30:48.704Z,101696.16
2023-10-16T03:32:50.634Z,101707.00
2023-10-16T03:34:53.653Z,101709.84
2023-10-16T03:36:55.483Z,101715.28
2023-10-16T03:38:57.283Z,101718.81
2023-10-16T03:40:58.969Z,101720.16
2023-10-16T03:43:00.768Z,101714.75
2023-10-16T03:45:02.630Z,101719.31
2023-10-16T03:47:04.414Z,101715.94
2023-10-16T03:49:06.173Z,101713.38
2023-10-16T03:51:10.016Z,101711.88
2023-10-16T03:53:12.040Z,101706.59
2023-10-16T03:55:13.887Z,101706.59
2023-10-16T03:57:17.577Z,101704.09
2023-10-16T03:59:20.749Z,101706.94
2023-10-16T04:01:22.571Z,101699.00
2023-10-16T04:03:25.186Z,101699.16
2023-10-16T04:05:27.487Z,101703.91
2023-10-16T04:07:30.625Z,101701.50
2023-10-16T04:09:32.476Z,101698.78
2023-10-16T04:11:34.165Z,101700.81
2023-10-16T04:13:36.303Z,101702.84
2023-10-16T04:15:38.076Z,101692.84
2023-10-16T04:17:39.865Z,101701.16
2023-10-16T04:19:41.696Z,101703.16
2023-10-16T04:21:44.427Z,101696.09
2023-10-16T04:23:47.557Z,101694.53
2023-10-16T04:25:49.279Z,101696.38
2023-10-16T04:27:51.200Z,101702.97
2023-10-16T04:29:53.330Z,101704.84
2023-10-16T04:31:55.919Z,101703.97
2023-10-16T04:33:58.259Z,101696.03
2023-10-16T04:35:59.987Z,101701.59
2023-10-16T04:38:01.854Z,101707.03
2023-10-16T04:40:06.176Z,101703.66
2023-10-16T04:42:08.477Z,101699.09
2023-10-16T04:44:10.559Z,101705.31
2023-10-16T04:46:12.416Z,101711.75
2023-10-16T04:48:14.250Z,101709.22
2023-10-16T04:50:16.208Z,101709.22
2023-10-16T04:52:17.969Z,101707.50
2023-10-16T04:54:37.561Z,101702.09
2023-10-16T04:59:11.796Z,101713.25
2023-10-16T04:59:13.731Z,101712.91
2023-10-16T05:01:15.934Z,101708.69
2023-10-16T05:03:17.572Z,101698.06
2023-10-16T05:05:19.183Z,101703.59
2023-10-16T05:07:24.514Z,101709.03
2023-10-16T05:09:26.126Z,101708.16
2023-10-16T05:11:30.513Z,101705.63
2023-10-16T05:13:33.432Z,101689.38
2023-10-16T05:15:35.069Z,101697.50
2023-10-16T05:17:39.706Z,101703.94
2023-10-16T05:19:43.149Z,101703.09
2023-10-16T05:21:46.560Z,101702.38
2023-10-16T05:23:48.169Z,101705.94
2023-10-16T05:25:51.323Z,101708.66
2023-10-16T05:27:56.422Z,101710.50
2023-10-16T05:30:00.531Z,101714.38
2023-10-16T05:32:02.139Z,101710.69
2023-10-16T05:34:03.745Z,101715.25
2023-10-16T05:36:08.132Z,101722.50
2023-10-16T05:38:11.740Z,101719.97
2023-10-16T05:40:13.562Z,101713.72
2023-10-16T05:42:15.143Z,101718.28
2023-10-16T05:44:18.675Z,101727.53
2023-10-16T05:46:21.714Z,101724.69
2023-10-16T05:48:23.295Z,101724.69
2023-10-16T05:50:24.946Z,101733.81
2023-10-16T05:52:26.586Z,101728.41
2023-10-16T05:54:28.298Z,101736.50
2023-10-16T05:56:29.949Z,101732.94
2023-10-16T05:58:31.496Z,101733.81
2023-10-16T06:00:33.486Z,101741.06
2023-10-16T06:02:36.405Z,101728.41
2023-10-16T06:04:38.172Z,101736.50
2023-10-16T06:06:39.913Z,101735.66
2023-10-16T06:08:41.513Z,101732.94
2023-10-16T06:10:44.491Z,101742.78
2023-10-16T06:13:27.452Z,101738.75
2023-10-16T06:15:28.986Z,101743.31
2023-10-16T06:17:30.612Z,101747.72
2023-10-16T06:19:33.684Z,101750.41
2023-10-16T06:21:35.254Z,101748.56
2023-10-16T06:23:37.016Z,101738.75
2023-10-16T06:25:40.996Z,101744.00
2023-10-16T06:27:42.554Z,101749.22
2023-10-16T06:29:44.177Z,101756.19
2023-10-16T06:31:45.809Z,101751.63
2023-10-16T06:33:47.456Z,101751.31
2023-10-16T06:35:50.617Z,101749.28
2023-10-16T06:37:52.328Z,101759.78
2023-10-16T06:39:54.017Z,101759.44
2023-10-16T06:41:55.876Z,101766.22
2023-10-16T06:43:57.665Z,101755.94
2023-10-16T06:45:59.388Z,101761.03
2023-10-16T06:48:01.088Z,101758.53
2023-10-16T06:50:02.685Z,101761.56
2023-10-16T06:52:10.330Z,101757.38
2023-10-16T06:54:12.031Z,101759.41
2023-10-16T06:56:13.566Z,101757.75
2023-10-16T06:58:16.968Z,101757.97
2023-10-16T07:00:19.337Z,101761.69
2023-10-16T07:02:22.681Z,101762.72
2023-10-16T07:04:24.412Z,101773.59
2023-10-16T07:06:27.570Z,101776.28
2023-10-16T07:08:38.306Z,101772.25
2023-10-16T07:10:39.996Z,101780.41
2023-10-16T07:12:41.741Z,101787.34
2023-10-16T07:14:46.651Z,101784.69
2023-10-16T07:16:48.246Z,101783.66
2023-10-16T07:18:51.074Z,101776.38
2023-10-16T07:20:53.625Z,101774.50
2023-10-16T07:22:57.797Z,101778.88
2023-10-16T07:25:31.365Z,101778.53
2023-10-16T07:34:24.639Z,101766.22
2023-10-16T07:36:27.359Z,101762.47
2023-10-16T07:38:30.018Z,101765.16
2023-10-16T07:40:32.586Z,101775.81
2023-10-16T07:49:25.670Z,101783.94
2023-10-16T07:51:27.439Z,101787.44
2023-10-16T08:06:03.364Z,101807.13
2023-10-16T08:08:05.120Z,101810.00
2023-10-16T08:10:07.568Z,101813.47
2023-10-16T08:12:12.743Z,101810.03
2023-10-16T08:14:16.182Z,101813.88
2023-10-16T08:16:19.182Z,101809.41
2023-10-16T08:18:21.191Z,101806.59
2023-10-16T08:27:13.822Z,101817.06
2023-10-16T08:29:15.554Z,101808.81
2023-10-16T08:31:17.178Z,101813.13
2023-10-16T08:33:23.701Z,101815.75
2023-10-16T08:42:16.887Z,101823.34
2023-10-16T08:44:19.746Z,101830.75
2023-10-16T08:46:21.764Z,101826.44
2023-10-16T08:48:24.394Z,101821.25
2023-10-16T08:50:27.364Z,101833.09
2023-10-16T08:52:29.064Z,101829.75
2023-10-16T08:54:30.725Z,101837.38
2023-10-16T08:56:32.832Z,101841.22
2023-10-16T08:58:38.754Z,101837.72
2023-10-16T09:00:40.491Z,101841.34
2023-10-16T09:02:42.509Z,101841.41
2023-10-16T09:04:45.339Z,101843.19
2023-10-16T09:06:48.309Z,101836.97
2023-10-16T09:08:50.081Z,101842.03
2023-10-16T09:10:52.447Z,101839.91
2023-10-16T09:12:59.069Z,101836.22
2023-10-16T09:15:04.604Z,101836.88
2023-10-16T09:17:11.831Z,101832.72
2023-10-16T09:19:14.769Z,101842.78
2023-10-16T09:21:16.318Z,101845.91
2023-10-16T09:23:20.016Z,101842.56
2023-10-16T09:25:36.500Z,101837.19
2023-10-16T09:27:42.459Z,101844.84
2023-10-16T09:29:47.714Z,101842.41
2023-10-16T09:31:49.424Z,101834.41
2023-10-16T09:33:51.758Z,101845.94
2023-10-16T09:35:55.807Z,101834.81
2023-10-16T09:38:09.442Z,101838.91
2023-10-16T09:40:23.507Z,101844.56
2023-10-16T09:42:26.205Z,101847.34
2023-10-16T09:44:28.218Z,101859.78
2023-10-16T09:46:30.163Z,101857.94
2023-10-16T09:48:31.836Z,101861.00
2023-10-16T09:50:33.807Z,101874.50
2023-10-16T09:52:36.950Z,101871.09
2023-10-16T09:54:38.680Z,101879.16
2023-10-16T09:56:45.530Z,101873.34
2023-10-16T09:58:51.976Z,101880.75
2023-10-16T10:00:53.892Z,101875.31
2023-10-16T10:02:59.100Z,101872.84
2023-10-16T10:05:02.039Z,101863.66
2023-10-16T10:07:11.136Z,101869.81
2023-10-16T10:09:15.608Z,101873.19
2023-10-16T10:11:29.562Z,101870.50
2023-10-16T10:13:35.793Z,101871.16
2023-10-16T10:15:40.444Z,101870.13
2023-10-16T10:17:43.033Z,101870.81
2023-10-16T10:19:44.623Z,101867.22
2023-10-16T10:21:46.216Z,101867.91
2023-10-16T10:23:48.433Z,101876.31
2023-10-16T10:28:05.595Z,101859.56
2023-10-16T10:30:23.923Z,101868.63
2023-10-16T10:32:34.871Z,101870.13
2023-10-16T10:34:36.595Z,101877.09
2023-10-16T10:36:38.460Z,101867.19
2023-10-16T10:38:40.551Z,101878.13
2023-10-16T10:41:15.271Z,101878.94
2023-10-16T10:43:40.149Z,101878.44
2023-10-16T10:45:43.831Z,101883.91
2023-10-16T10:47:45.821Z,101870.22
2023-10-16T11:05:54.786Z,101873.50
2023-10-16T11:17:16.802Z,101864.47
2023-10-16T11:37:18.773Z,101898.22
2023-10-16T11:39:25.807Z,101904.09
2023-10-16T11:41:27.732Z,101906.16
2023-10-16T11:43:30.725Z,101895.59
2023-10-16T11:45:32.498Z,101911.16
2023-10-16T11:47:39.761Z,101913.84
2023-10-16T11:49:54.179Z,101924.72
2023-10-16T11:51:59.573Z,101920.03
2023-10-16T11:54:04.163Z,101914.53
2023-10-16T11:56:10.356Z,101910.91
2023-10-16T11:58:14.688Z,101918.19
2023-10-16T12:00:17.920Z,101916.47
2023-10-16T12:02:19.706Z,101920.84
2023-10-16T12:04:23.885Z,101918.53
2023-10-16T12:06:27.962Z,101911.94
2023-10-16T12:08:29.819Z,101911.31
2023-10-16T12:10:36.847Z,101914.44
2023-10-16T12:12:38.890Z,101909.34
2023-10-16T12:14:40.756Z,101905.41
2023-10-16T12:16:45.599Z,101910.59
2023-10-16T12:18:47.499Z,101911.84
2023-10-16T12:20:49.709Z,101912.22
2023-10-16T12:22:51.538Z,101904.59
2023-10-16T12:24:53.496Z,101917.81
2023-10-16T12:26:57.104Z,101916.13
2023-10-16T12:56:44.799Z,101927.63
2023-10-16T12:58:46.453Z,101926.50
2023-10-16T13:00:57.540Z,101932.06
2023-10-16T13:02:59.714Z,101925.13
2023-10-16T13:05:03.415Z,101924.38
2023-10-16T13:07:05.361Z,101928.19
2023-10-16T13:09:09.761Z,101934.56
2023-10-16T13:11:22.543Z,101930.69
2023-10-16T13:13:27.817Z,101932.00
2023-10-16T13:15:29.888Z,101939.78
2023-10-16T13:17:31.731Z,101940.06
2023-10-16T13:19:33.797Z,101930.44
2023-10-16T13:21:43.651Z,101942.19
2023-10-16T13:23:47.520Z,101941.16
2023-10-16T13:25:49.814Z,101942.00
2023-10-16T13:27:51.918Z,101948.31
2023-10-16T13:30:02.823Z,101948.31
2023-10-16T13:32:13.608Z,101949.16
2023-10-16T13:34:16.990Z,101952.47
2023-10-16T13:36:18.810Z,101937.13
2023-10-16T13:38:20.728Z,101940.47
2023-10-16T13:40:26.463Z,101937.47
2023-10-16T13:42:28.213Z,101939.91
2023-10-16T13:44:31.934Z,101938.44
2023-10-16T13:46:35.074Z,101944.94
2023-10-16T13:48:36.966Z,101947.03
2023-10-16T13:50:39.387Z,101942.78
2023-10-16T13:52:44.700Z,101946.56
2023-10-16T13:54:46.475Z,101947.41
2023-10-16T13:56:48.723Z,101950.31
2023-10-16T13:58:50.606Z,101945.72
2023-10-16T14:00:52.650Z,101948.22
2023-10-16T14:02:58.312Z,101940.03
2023-10-16T14:05:00.229Z,101947.19
2023-10-16T14:07:04.103Z,101944.88
2023-10-16T14:09:06.053Z,101941.94
2023-10-16T14:11:09.969Z,101956.44
2023-10-16T14:13:11.861Z,101955.22
2023-10-16T14:15:13.894Z,101958.78
2023-10-16T14:17:15.785Z,101956.06
2023-10-16T14:19:45.236Z,101957.16
2023-10-16T14:21:47.044Z,101962.75
2023-10-16T14:24:02.428Z,101963.81
2023-10-16T14:26:04.173Z,101962.28
2023-10-16T14:28:06.237Z,101958.06
2023-10-16T14:30:20.261Z,101958.06
2023-10-16T14:32:28.769Z,101961.19
2023-10-16T14:34:32.808Z,101959.31
2023-10-16T14:36:34.713Z,101957.78
2023-10-16T14:38:37.575Z,101960.91
2023-10-16T14:40:42.612Z,101961.75
2023-10-16T14:42:44.705Z,101964.88
2023-10-16T14:44:46.589Z,101963.34
2023-10-16T14:46:49.662Z,101963.75
2023-10-16T14:48:54.446Z,101959.53
2023-10-16T14:50:58.362Z,101965.16
2023-10-16T14:53:00.736Z,101963.69
2023-10-16T14:55:02.609Z,101960.31
2023-10-16T14:57:06.854Z,101960.47
2023-10-16T14:59:14.909Z,101965.31
2023-10-16T15:01:19.567Z,101970.31
2023-10-16T15:03:23.359Z,101966.03
2023-10-16T15:05:26.202Z,101971.03
2023-10-16T15:07:31.154Z,101972.06
2023-10-16T15:09:35.172Z,101978.97
2023-10-16T15:11:37.086Z,101980.38
2023-10-16T15:13:39.571Z,101994.59
2023-10-16T15:15:42.440Z,101995.16
2023-10-16T15:17:44.574Z,102000.31
2023-10-16T15:19:48.595Z,102000.06
2023-10-16T15:21:50.390Z,101993.28
2023-10-16T15:23:54.036Z,101996.56
2023-10-16T15:25:57.924Z,101993.38
2023-10-16T15:28:00.287Z,102000.91
2023-10-16T15:30:02.408Z,101996.00
2023-10-16T15:32:04.890Z,101994.03
2023-10-16T15:34:10.796Z,101991.66
2023-10-16T15:36:13.056Z,101996.81
2023-10-16T15:38:14.921Z,101997.19
2023-10-16T15:42:45.997Z,102008.31
2023-10-16T15:44:47.498Z,102001.56
2023-10-16T15:46:49.649Z,102005.13
2023-10-16T15:48:51.323Z,102008.06
2023-10-16T15:50:52.916Z,102006.72
2023-10-16T15:52:56.423Z,102015.44
2023-10-16T15:54:58.090Z,102010.53
2023-10-16T15:56:59.689Z,102005.00
2023-10-16T15:59:02.571Z,102012.84
2023-10-16T16:01:04.266Z,102007.94
2023-10-16T16:03:06.515Z,102016.69
2023-10-16T16:05:08.327Z,102017.22
2023-10-16T16:07:12.313Z,102017.13
2023-10-16T16:09:14.034Z,102017.81
2023-10-16T16:11:16.940Z,102021.13
2023-10-16T16:13:18.472Z,102030.19
2023-10-16T16:15:21.471Z,102031.56
2023-10-16T16:17:23.060Z,102026.66
2023-10-16T16:19:24.737Z,102033.66
2023-10-16T16:21:26.466Z,102030.78
2023-10-16T16:23:28.137Z,102033.88
2023-10-16T16:25:30.311Z,102045.28
2023-10-16T16:27:31.908Z,102036.63
2023-10-16T16:29:33.559Z,102048.91
2023-10-16T16:31:36.583Z,102052.84
2023-10-16T16:33:40.267Z,102053.19
2023-10-16T16:35:44.365Z,102060.88
2023-10-16T16:37:50.125Z,102050.34
2023-10-16T16:39:51.782Z,102054.25
2023-10-16T16:41:53.328Z,102055.59
2023-10-16T16:43:55.093Z,102059.53
2023-10-16T16:45:58.627Z,102058.03
2023-10-16T16:48:01.638Z,102059.41
2023-10-16T16:50:03.329Z,102058.91
2023-10-16T16:52:06.348Z,102063.84
2023-10-16T16:54:08.122Z,102060.63
2023-10-16T16:56:14.312Z,102064.69
2023-10-16T16:58:17.511Z,102062.63
2023-10-16T17:00:20.762Z,102068.44
2023-10-16T17:02:22.490Z,102064.53
2023-10-16T17:04:25.800Z,102064.03
2023-10-16T17:06:29.555Z,102064.56
2023-10-16T17:08:31.190Z,102067.78
2023-10-16T17:10:32.783Z,102067.28
2023-10-16T17:12:35.729Z,102065.06
2023-10-16T17:14:37.275Z,102064.75
2023-10-16T17:16:38.832Z,102066.97
2023-10-16T17:18:40.585Z,102068.47
2023-10-16T17:20:43.534Z,102069.69
2023-10-16T17:23:04.372Z,102074.63
2023-10-16T17:25:07.722Z,102075.13
2023-10-16T17:27:09.362Z,102068.31
2023-10-16T17:29:10.942Z,102074.25
2023-10-16T17:31:17.005Z,102074.59
2023-10-16T17:33:18.676Z,102075.09
2023-10-16T17:35:20.251Z,102075.44
2023-10-16T17:37:26.848Z,102072.22
2023-10-16T17:39:28.412Z,102071.03
2023-10-16T17:41:29.972Z,102082.91
2023-10-16T17:43:31.483Z,102082.38
2023-10-16T17:45:33.778Z,102080.16
2023-10-16T17:47:35.435Z,102082.38
2023-10-16T17:49:37.169Z,102087.28
2023-10-16T17:53:55.712Z,102079.97
2023-10-16T17:55:57.643Z,102080.31
2023-10-16T17:57:59.223Z,102091.50
2023-10-16T18:00:02.607Z,102086.41
2023-10-16T18:02:04.442Z,102089.44
2023-10-16T18:04:07.797Z,102082.47
2023-10-16T18:06:11.348Z,102087.38
2023-10-16T18:08:12.949Z,102077.88
2023-10-16T18:10:15.917Z,102086.34
2023-10-16T18:12:17.567Z,102087.53
2023-10-16T18:14:19.191Z,102083.28
2023-10-16T18:16:20.795Z,102087.16
2023-10-16T18:18:23.972Z,102082.09
2023-10-16T18:20:25.686Z,102093.25
2023-10-16T18:22:27.254Z,102094.41
2023-10-16T18:24:29.191Z,102085.75
2023-10-16T18:26:32.199Z,102095.94
2023-10-16T18:28:33.743Z,102094.56
2023-10-16T18:30:35.372Z,102089.28
2023-10-16T18:32:37.010Z,102088.63
2023-10-16T18:34:38.604Z,102091.66
2023-10-16T18:36:40.162Z,102099.09
2023-10-16T18:38:42.256Z,102097.56
2023-10-16T18:40:43.940Z,102099.59
2023-10-16T18:42:47.741Z,102106.03
2023-10-16T18:44:49.485Z,102104.47
2023-10-16T18:46:53.232Z,102102.78
2023-10-16T18:48:55.975Z,102103.78
2023-10-16T18:50:57.792Z,102098.66
2023-10-16T18:53:01.828Z,102102.38
2023-10-16T18:55:05.530Z,102106.25
2023-10-16T18:57:07.156Z,102110.84
2023-10-16T18:59:10.156Z,102114.72
2023-10-16T19:01:14.579Z,102113.16
2023-10-16T19:03:16.210Z,102111.63
2023-10-16T19:05:18.074Z,102114.50
2023-10-16T19:07:22.114Z,102117.53
2023-10-16T19:09:23.715Z,102107.88
2023-10-16T19:11:27.984Z,102109.88
2023-10-16T19:13:37.227Z,102119.19
2023-10-16T19:15:40.111Z,102114.94
2023-10-16T19:17:41.682Z,102125.91
2023-10-16T19:19:45.009Z,102122.53
2023-10-16T19:21:46.574Z,102121.16
2023-10-16T19:23:48.168Z,102115.88
2023-10-16T19:25:58.764Z,102120.44
2023-10-16T19:28:00.330Z,102129.06
2023-10-16T19:30:02.207Z,102131.06
2023-10-16T19:32:05.705Z,102129.34
2023-10-16T19:34:07.448Z,102135.94
2023-10-16T19:36:12.943Z,102143.41
2023-10-16T19:38:14.534Z,102137.28
2023-10-16T19:40:17.523Z,102142.00
2023-10-16T19:42:19.124Z,102137.72
2023-10-16T19:44:20.714Z,102141.47
2023-10-16T19:46:22.381Z,102143.47
2023-10-16T19:48:25.665Z,102142.78
2023-10-16T19:50:27.386Z,102141.06
2023-10-16T19:52:28.933Z,102147.50
2023-10-16T19:54:31.060Z,102144.09
2023-10-16T19:56:32.773Z,102145.97
2023-10-16T19:58:35.544Z,102137.16
2023-10-16T20:00:37.725Z,102134.59
2023-10-16T20:02:39.318Z,102137.44
2023-10-16T20:04:42.517Z,102143.03
2023-10-16T20:06:44.112Z,102145.88
2023-10-16T20:08:46.073Z,102147.06
2023-10-16T20:10:47.723Z,102151.75
2023-10-16T20:12:50.854Z,102146.50
2023-10-16T20:14:52.563Z,102152.91
2023-10-16T20:16:59.759Z,102149.53
2023-10-16T20:19:08.574Z,102146.97
2023-10-16T20:21:14.093Z,102155.25
2023-10-16T20:23:15.628Z,102164.38
2023-10-16T20:25:17.210Z,102159.09
2023-10-16T20:27:18.783Z,102159.41
2023-10-16T20:29:20.380Z,102163.97
2023-10-16T20:31:22.027Z,102164.97
2023-10-16T20:33:23.848Z,102165.16
2023-10-16T20:35:25.794Z,102163.44
2023-10-16T20:37:28.723Z,102160.91
2023-10-16T20:39:30.362Z,102158.47
2023-10-16T20:41:31.932Z,102164.06
2023-10-16T20:43:33.585Z,102170.59
2023-10-16T20:45:37.645Z,102170.06
2023-10-16T20:47:39.278Z,102172.94
2023-10-16T20:49:40.903Z,102169.53
2023-10-16T20:51:45.014Z,102176.97
2023-10-16T20:53:47.945Z,102174.38
2023-10-16T20:55:49.606Z,102179.97
2023-10-16T20:57:52.514Z,102181.09
2023-10-16T20:59:56.138Z,102185.69
2023-10-16T21:01:57.668Z,102179.56
2023-10-16T21:03:59.506Z,102186.81
2023-10-16T21:06:01.107Z,102184.28
2023-10-16T21:08:07.315Z,102185.28
2023-10-16T21:10:13.557Z,102184.44
2023-10-16T21:12:15.280Z,102185.59
2023-10-16T21:14:16.958Z,102179.47
2023-10-16T21:16:18.580Z,102180.63
2023-10-16T21:18:20.337Z,102183.47
2023-10-16T21:20:22.256Z,102190.59
2023-10-16T21:22:23.895Z,102184.78
2023-10-16T21:24:25.642Z,102182.22
2023-10-16T21:26:28.710Z,102176.97
2023-10-16T21:28:30.273Z,102177.81
2023-10-16T21:30:31.936Z,102179.84
2023-10-16T21:32:33.713Z,102179.13
2023-10-16T21:34:35.331Z,102185.56
2023-10-16T21:36:36.885Z,102184.81
2023-10-16T21:38:38.453Z,102180.56
2023-10-16T21:40:40.011Z,102183.59
2023-10-16T21:42:42.878Z,102187.28
2023-10-16T21:44:44.542Z,102194.69
2023-10-16T21:46:46.288Z,102188.59
2023-10-16T21:48:47.997Z,102194.97
2023-10-16T21:50:49.687Z,102192.44
2023-10-16T21:52:51.387Z,102198.00
2023-10-16T21:54:53.000Z,102198.13
2023-10-16T21:56:55.596Z,102194.72
2023-10-16T21:59:01.096Z,102188.63
2023-10-16T22:01:02.774Z,102197.75
2023-10-16T22:03:07.485Z,102204.13
2023-10-16T22:05:09.382Z,102205.13
2023-10-16T22:07:10.949Z,102195.47
2023-10-16T22:09:14.366Z,102203.88
2023-10-16T22:11:17.669Z,102196.94
2023-10-16T22:13:19.238Z,102194.34
2023-10-16T22:15:24.523Z,102186.53
2023-10-16T22:17:26.143Z,102194.78
2023-10-16T22:19:28.169Z,102197.66
2023-10-16T22:21:30.276Z,102192.53
2023-10-16T22:23:31.973Z,102190.84
2023-10-16T22:25:33.511Z,102190.28
2023-10-16T22:27:35.079Z,102192.13
2023-10-16T22:29:36.793Z,102194.84
2023-10-16T22:31:40.390Z,102193.25
2023-10-16T22:33:43.200Z,102196.81
2023-10-16T22:35:45.938Z,102195.25
2023-10-16T22:37:47.513Z,102202.69
2023-10-16T22:39:49.226Z,102200.09
2023-10-16T22:41:50.826Z,102194.00
2023-10-16T22:43:52.357Z,102192.44
2023-10-16T22:45:54.132Z,102199.84
2023-10-16T22:47:57.066Z,102199.97
2023-10-16T22:49:58.853Z,102198.44
2023-10-16T22:52:00.454Z,102194.00
2023-10-16T22:54:02.080Z,102192.47
2023-10-16T22:56:04.218Z,102191.59
2023-10-16T22:58:07.995Z,102190.75
2023-10-16T23:00:11.791Z,102190.06
2023-10-16T23:02:13.410Z,102191.19
2023-10-16T23:04:18.631Z,102201.13
2023-10-16T23:06:20.191Z,102200.44
2023-10-16T23:08:21.828Z,102190.78
2023-10-16T23:17:10.813Z,102195.75
2023-10-16T23:19:13.191Z,102201.28
2023-10-16T23:24:01.714Z,102197.75
2023-10-16T23:26:04.623Z,102200.72
2023-10-16T23:28:06.488Z,102190.94
2023-10-16T23:30:18.774Z,102193.75
2023-10-16T23:34:55.963Z,102197.44
